createdAt,value
2022-11-29T00:00:02.946Z,31.70
2022-11-29T00:02:53.029Z,34.08
2022-11-29T00:05:40.079Z,36.33
2022-11-29T00:08:26.996Z,35.28
2022-11-29T00:11:36.667Z,32.80
2022-11-29T00:14:24.854Z,31.70
2022-11-29T00:17:11.749Z,30.92
2022-11-29T00:19:58.682Z,33.22
2022-11-29T00:22:45.618Z,40.80
2022-11-29T00:25:32.572Z,33.90
2022-11-29T00:28:19.452Z,38.97
2022-11-29T00:31:27.553Z,35.58
2022-11-29T00:34:14.478Z,35.15
2022-11-29T00:37:01.394Z,33.92
2022-11-29T00:39:48.293Z,34.25
2022-11-29T00:42:35.241Z,35.50
2022-11-29T00:45:22.148Z,36.05
2022-11-29T00:48:09.045Z,33.85
2022-11-29T00:50:56.002Z,33.45
2022-11-29T00:53:42.887Z,34.28
2022-11-29T00:56:30.011Z,36.80
2022-11-29T00:59:16.938Z,35.28
2022-11-29T01:02:03.911Z,41.20
2022-11-29T01:04:50.939Z,37.67
2022-11-29T01:07:37.894Z,39.72
2022-11-29T01:10:25.642Z,39.70
2022-11-29T01:13:12.567Z,34.53
2022-11-29T01:15:59.531Z,42.67
2022-11-29T01:18:46.468Z,40.38
2022-11-29T01:21:33.600Z,44.42
2022-11-29T01:24:22.252Z,47.00
2022-11-29T01:27:09.976Z,48.47
2022-11-29T01:29:56.896Z,48.70
2022-11-29T01:32:43.821Z,50.15
2022-11-29T01:35:30.715Z,44.88
2022-11-29T01:38:18.377Z,49.35
2022-11-29T01:41:08.689Z,53.70
2022-11-29T01:44:45.004Z,49.60
2022-11-29T01:47:33.023Z,46.50
2022-11-29T01:50:20.531Z,55.78
2022-11-29T01:53:08.440Z,49.17
2022-11-29T01:56:01.183Z,49.17
2022-11-29T01:58:48.200Z,58.53
2022-11-29T02:01:36.751Z,53.58
2022-11-29T02:04:23.931Z,55.05
2022-11-29T02:07:11.167Z,49.60
2022-11-29T02:09:58.382Z,52.80
2022-11-29T02:13:22.640Z,55.03
2022-11-29T02:16:55.038Z,46.70
2022-11-29T02:20:25.869Z,48.67
2022-11-29T02:23:49.857Z,55.22
2022-11-29T02:27:22.787Z,54.80
2022-11-29T02:30:19.772Z,58.13
2022-11-29T02:51:22.678Z,53.85
2022-11-29T02:54:27.068Z,49.40
2022-11-29T02:57:41.971Z,51.65
2022-11-29T03:00:29.719Z,55.08
2022-11-29T03:03:35.610Z,46.13
2022-11-29T03:06:50.489Z,54.60
2022-11-29T03:10:18.935Z,49.88
2022-11-29T03:13:16.770Z,48.22
2022-11-29T03:16:41.323Z,55.40
2022-11-29T03:19:54.504Z,52.17
2022-11-29T03:23:11.902Z,45.95
2022-11-29T03:26:26.035Z,52.90
2022-11-29T03:29:45.589Z,55.03
2022-11-29T03:32:50.904Z,48.25
2022-11-29T03:35:43.626Z,55.85
2022-11-29T03:38:43.756Z,56.33
2022-11-29T03:41:55.131Z,51.75
2022-11-29T03:45:03.284Z,54.88
2022-11-29T03:48:07.828Z,54.83
2022-11-29T03:51:07.522Z,51.80
2022-11-29T03:54:01.232Z,56.90
2022-11-29T03:56:48.756Z,55.08
2022-11-29T04:00:02.667Z,52.05
2022-11-29T04:03:32.780Z,61.03
2022-11-29T04:06:55.111Z,56.95
2022-11-29T04:10:02.225Z,196.98
2022-11-29T04:13:24.349Z,121.68
2022-11-29T04:16:40.728Z,64.97
2022-11-29T04:20:09.529Z,52.45
2022-11-29T04:23:35.824Z,60.30
2022-11-29T04:27:01.457Z,53.08
2022-11-29T04:30:19.855Z,56.40
2022-11-29T04:33:37.749Z,59.28
2022-11-29T04:36:45.861Z,56.20
2022-11-29T04:40:09.716Z,63.67
2022-11-29T04:43:35.314Z,61.10
2022-11-29T04:50:09.972Z,59.22
2022-11-29T04:53:39.002Z,56.75
2022-11-29T05:00:11.791Z,55.95
2022-11-29T05:03:02.223Z,61.13
2022-11-29T05:06:02.856Z,57.55
2022-11-29T05:09:22.274Z,58.97
2022-11-29T05:12:31.985Z,59.53
2022-11-29T05:15:50.558Z,56.72
2022-11-29T05:19:03.144Z,61.88
2022-11-29T05:22:06.543Z,54.53
2022-11-29T05:25:42.411Z,63.53
2022-11-29T05:29:07.188Z,92.88
2022-11-29T05:32:35.465Z,76.78
2022-11-29T05:35:50.355Z,94.57
2022-11-29T05:39:01.416Z,227.63
2022-11-29T05:42:16.407Z,124.43
2022-11-29T05:45:09.094Z,96.55
2022-11-29T05:48:14.138Z,75.65
2022-11-29T05:51:42.216Z,69.28
2022-11-29T05:54:49.708Z,59.25
2022-11-29T05:58:10.976Z,62.25
2022-11-29T06:01:32.890Z,60.42
2022-11-29T06:04:48.544Z,67.93
2022-11-29T06:08:02.921Z,73.63
2022-11-29T06:11:01.429Z,63.47
2022-11-29T06:14:26.517Z,73.40
2022-11-29T06:18:23.060Z,61.03
2022-11-29T06:21:40.789Z,63.08
2022-11-29T06:25:10.649Z,64.60
2022-11-29T06:28:40.507Z,66.88
2022-11-29T06:31:39.621Z,69.35
2022-11-29T06:34:59.247Z,73.03
2022-11-29T06:37:50.714Z,61.25
2022-11-29T06:40:37.856Z,69.93
2022-11-29T06:43:28.735Z,69.85
2022-11-29T06:46:40.328Z,64.13
2022-11-29T06:49:31.073Z,69.63
2022-11-29T06:52:47.192Z,62.30
2022-11-29T06:55:46.513Z,69.63
2022-11-29T06:58:47.908Z,69.60
2022-11-29T07:01:56.085Z,64.85
2022-11-29T07:05:18.173Z,64.00
2022-11-29T07:08:11.389Z,76.47
2022-11-29T07:10:59.633Z,68.15
2022-11-29T07:13:47.054Z,84.88
2022-11-29T07:16:57.039Z,65.22
2022-11-29T07:20:19.280Z,70.82
2022-11-29T07:23:21.819Z,70.85
2022-11-29T07:26:44.973Z,73.78
2022-11-29T07:30:09.212Z,71.57
2022-11-29T07:33:16.008Z,66.88
2022-11-29T07:36:49.127Z,69.20
2022-11-29T07:40:13.932Z,65.95
2022-11-29T07:43:42.401Z,65.07
2022-11-29T07:46:29.429Z,68.30
2022-11-29T07:49:16.485Z,69.32
2022-11-29T07:52:03.531Z,69.13
2022-11-29T07:54:50.492Z,68.45
2022-11-29T07:57:37.385Z,65.45
2022-11-29T08:00:24.466Z,69.75
2022-11-29T08:03:11.726Z,69.57
2022-11-29T08:05:58.684Z,72.53
2022-11-29T08:08:45.640Z,70.95
2022-11-29T08:11:32.728Z,71.57
2022-11-29T08:14:19.628Z,61.08
2022-11-29T08:17:06.608Z,69.70
2022-11-29T08:19:53.519Z,69.55
2022-11-29T08:22:40.531Z,67.80
2022-11-29T08:25:28.144Z,62.28
2022-11-29T08:28:15.052Z,67.32
2022-11-29T08:31:07.723Z,73.22
2022-11-29T08:33:54.709Z,77.45
2022-11-29T08:36:41.639Z,62.30
2022-11-29T08:39:28.626Z,65.50
2022-11-29T08:42:15.536Z,65.10
2022-11-29T08:45:02.476Z,63.20
2022-11-29T08:47:49.372Z,60.47
2022-11-29T08:50:36.281Z,61.00
2022-11-29T08:53:42.307Z,61.88
2022-11-29T08:57:16.645Z,68.88
2022-11-29T08:59:36.216Z,64.60
2022-11-29T09:02:23.242Z,61.83
2022-11-29T09:05:11.089Z,64.03
2022-11-29T09:07:58.552Z,68.57
2022-11-29T09:10:45.809Z,67.15
2022-11-29T09:13:32.715Z,67.40
2022-11-29T09:16:22.495Z,69.93
2022-11-29T09:19:10.248Z,60.45
2022-11-29T09:21:57.172Z,63.28
2022-11-29T09:24:44.583Z,69.57
2022-11-29T09:27:31.619Z,66.63
2022-11-29T09:30:23.461Z,70.82
2022-11-29T09:33:10.720Z,70.20
2022-11-29T09:35:58.656Z,61.97
2022-11-29T09:38:45.682Z,55.40
2022-11-29T09:41:48.512Z,74.35
2022-11-29T09:48:01.589Z,59.55
2022-11-29T09:51:04.185Z,61.35
2022-11-29T09:54:31.503Z,66.22
2022-11-29T09:57:19.717Z,58.35
2022-11-29T10:00:15.750Z,63.45
2022-11-29T10:03:13.881Z,60.35
2022-11-29T10:06:08.893Z,52.42
2022-11-29T10:09:02.474Z,57.92
2022-11-29T10:12:19.991Z,52.22
2022-11-29T10:15:14.072Z,55.67
2022-11-29T10:18:38.498Z,57.38
2022-11-29T10:21:30.626Z,56.13
2022-11-29T10:24:22.959Z,57.23
2022-11-29T10:27:19.721Z,55.47
2022-11-29T10:30:14.086Z,53.13
2022-11-29T10:33:01.116Z,52.00
2022-11-29T10:35:50.541Z,53.92
2022-11-29T10:38:37.480Z,54.10
2022-11-29T10:41:25.445Z,48.50
2022-11-29T10:44:14.425Z,50.13
2022-11-29T10:47:10.458Z,56.58
2022-11-29T10:49:58.525Z,60.60
2022-11-29T10:52:45.434Z,52.70
2022-11-29T10:55:40.401Z,59.00
2022-11-29T10:58:29.770Z,55.80
2022-11-29T11:01:17.057Z,51.40
2022-11-29T11:04:07.430Z,56.85
2022-11-29T11:07:01.433Z,50.53
2022-11-29T11:09:50.913Z,49.90
2022-11-29T11:12:37.880Z,48.80
2022-11-29T11:15:30.348Z,46.10
2022-11-29T11:18:22.790Z,53.90
2022-11-29T11:21:12.909Z,55.30
2022-11-29T11:24:02.954Z,47.55
2022-11-29T11:26:49.935Z,53.58
2022-11-29T11:29:41.016Z,58.05
2022-11-29T11:32:28.428Z,48.63
2022-11-29T11:35:24.097Z,51.22
2022-11-29T11:38:19.778Z,54.42
2022-11-29T11:41:17.662Z,51.30
2022-11-29T11:44:49.162Z,50.17
2022-11-29T11:47:57.538Z,52.58
2022-11-29T11:50:51.139Z,52.72
2022-11-29T11:53:38.643Z,45.90
2022-11-29T11:56:35.590Z,53.13
2022-11-29T11:59:26.349Z,53.08
2022-11-29T12:02:48.659Z,53.15
2022-11-29T12:05:35.692Z,50.03
2022-11-29T12:08:24.079Z,45.30
2022-11-29T12:11:15.340Z,52.28
2022-11-29T12:14:05.129Z,59.30
2022-11-29T12:17:01.152Z,50.40
2022-11-29T12:20:34.482Z,49.45
2022-11-29T12:23:58.297Z,44.28
2022-11-29T12:27:00.900Z,47.60
2022-11-29T12:29:47.916Z,52.13
2022-11-29T12:33:03.267Z,46.15
2022-11-29T12:36:00.449Z,48.03
2022-11-29T12:39:33.539Z,46.67
2022-11-29T12:42:40.819Z,45.95
2022-11-29T12:45:41.334Z,60.97
2022-11-29T12:49:17.711Z,72.10
2022-11-29T12:52:25.691Z,53.95
2022-11-29T12:55:39.510Z,55.30
2022-11-29T12:59:11.217Z,54.55
2022-11-29T13:02:27.151Z,45.17
2022-11-29T13:05:29.853Z,62.78
2022-11-29T13:09:12.296Z,49.92
2022-11-29T13:12:13.040Z,49.53
2022-11-29T13:15:44.951Z,48.08
2022-11-29T13:47:58.416Z,49.58
2022-11-29T13:50:46.718Z,50.15
2022-11-29T13:53:48.668Z,47.92
2022-11-29T13:56:46.020Z,58.10
2022-11-29T13:59:36.074Z,48.97
2022-11-29T14:02:31.236Z,50.38
2022-11-29T14:05:28.969Z,55.92
2022-11-29T14:09:19.359Z,53.15
2022-11-29T14:12:39.777Z,56.95
2022-11-29T14:15:31.154Z,54.83
2022-11-29T14:18:47.888Z,52.08
2022-11-29T14:22:17.085Z,51.30
2022-11-29T14:25:49.927Z,49.13
2022-11-29T14:28:39.110Z,58.50
2022-11-29T14:31:53.301Z,48.72
2022-11-29T14:34:45.930Z,54.53
2022-11-29T14:37:51.220Z,50.97
2022-11-29T14:41:13.925Z,55.00
2022-11-29T14:44:34.088Z,49.97
2022-11-29T14:47:31.850Z,60.20
2022-11-29T14:50:36.942Z,54.72
2022-11-29T14:53:35.680Z,54.88
2022-11-29T14:56:38.899Z,53.33
2022-11-29T15:02:45.543Z,48.45
2022-11-29T15:06:00.517Z,62.97
2022-11-29T15:09:06.188Z,54.67
2022-11-29T15:11:58.833Z,60.25
2022-11-29T15:15:35.402Z,62.00
2022-11-29T15:18:37.352Z,61.30
2022-11-29T15:21:48.815Z,49.97
2022-11-29T15:25:00.253Z,52.30
2022-11-29T15:27:55.233Z,60.85
2022-11-29T15:30:42.779Z,53.67
2022-11-29T15:33:29.882Z,55.80
2022-11-29T15:36:23.304Z,53.17
2022-11-29T15:39:28.782Z,60.20
2022-11-29T15:42:15.941Z,55.40
2022-11-29T15:45:39.393Z,58.45
2022-11-29T15:48:31.935Z,59.72
2022-11-29T15:51:31.375Z,63.53
2022-11-29T15:54:42.004Z,74.85
2022-11-29T15:57:49.773Z,69.22
2022-11-29T16:00:36.991Z,63.58
2022-11-29T16:03:26.873Z,149.95
2022-11-29T16:06:52.103Z,119.93
2022-11-29T16:09:42.933Z,71.00
2022-11-29T16:12:29.993Z,55.88
2022-11-29T16:15:30.140Z,56.25
2022-11-29T16:18:23.467Z,60.03
2022-11-29T16:21:43.511Z,55.60
2022-11-29T16:24:33.897Z,59.47
2022-11-29T16:27:21.863Z,65.68
2022-11-29T16:30:21.589Z,57.08
2022-11-29T16:33:21.286Z,48.05
2022-11-29T16:36:36.042Z,52.72
2022-11-29T16:39:24.298Z,95.15
2022-11-29T16:42:25.907Z,87.68
2022-11-29T16:45:36.358Z,62.67
2022-11-29T16:48:38.194Z,62.92
2022-11-29T16:51:32.365Z,61.67
2022-11-29T16:54:27.823Z,94.43
2022-11-29T16:57:14.868Z,63.70
2022-11-29T17:00:02.017Z,62.38
2022-11-29T17:02:49.201Z,65.05
2022-11-29T17:05:40.252Z,56.90
2022-11-29T17:08:30.656Z,67.78
2022-11-29T17:11:17.719Z,57.72
2022-11-29T17:14:04.582Z,59.05
2022-11-29T17:16:52.100Z,58.60
2022-11-29T17:19:39.133Z,54.80
2022-11-29T17:22:26.061Z,64.90
2022-11-29T17:25:13.056Z,64.03
2022-11-29T17:28:00.023Z,59.70
2022-11-29T17:30:46.925Z,66.15
2022-11-29T17:33:33.802Z,58.97
2022-11-29T17:36:21.710Z,60.67
2022-11-29T17:39:08.856Z,54.15
2022-11-29T17:41:55.900Z,58.85
2022-11-29T17:44:42.894Z,50.40
2022-11-29T17:47:29.794Z,55.25
2022-11-29T17:50:17.040Z,58.58
2022-11-29T17:53:03.960Z,58.08
2022-11-29T17:55:50.869Z,54.95
2022-11-29T17:58:39.082Z,52.30
2022-11-29T18:01:29.500Z,49.50
2022-11-29T18:04:16.718Z,52.42
2022-11-29T18:07:03.616Z,50.05
2022-11-29T18:09:50.940Z,54.33
2022-11-29T18:12:37.869Z,51.50
2022-11-29T18:15:24.876Z,50.65
2022-11-29T18:18:11.752Z,52.28
2022-11-29T18:21:03.442Z,50.45
2022-11-29T18:23:50.753Z,47.55
2022-11-29T18:26:38.747Z,50.72
2022-11-29T18:29:25.664Z,50.05
2022-11-29T18:32:12.605Z,44.92
2022-11-29T18:35:01.597Z,52.65
2022-11-29T18:38:14.155Z,47.70
2022-11-29T18:40:55.332Z,51.92
2022-11-29T18:43:42.498Z,48.72
2022-11-29T18:46:33.041Z,43.55
2022-11-29T18:49:20.047Z,56.30
2022-11-29T18:52:06.992Z,41.45
2022-11-29T18:54:54.034Z,50.40
2022-11-29T18:57:41.201Z,48.75
2022-11-29T19:00:28.206Z,54.28
2022-11-29T19:03:15.124Z,50.92
2022-11-29T19:06:04.257Z,49.00
2022-11-29T19:08:51.903Z,46.33
2022-11-29T19:11:39.233Z,47.50
2022-11-29T19:14:26.175Z,45.50
2022-11-29T19:17:13.080Z,47.10
2022-11-29T19:20:00.218Z,45.80
2022-11-29T19:22:47.797Z,44.05
2022-11-29T19:25:34.989Z,46.78
2022-11-29T19:28:21.879Z,46.33
2022-11-29T19:31:10.182Z,44.55
2022-11-29T19:33:58.188Z,46.92
2022-11-29T19:36:45.549Z,47.88
2022-11-29T19:39:33.931Z,52.15
2022-11-29T19:42:22.238Z,52.55
2022-11-29T19:45:18.696Z,49.15
2022-11-29T19:48:05.855Z,45.97
2022-11-29T19:50:52.897Z,40.92
2022-11-29T19:53:40.289Z,44.63
2022-11-29T19:56:28.926Z,44.97
2022-11-29T19:59:15.901Z,46.85
2022-11-29T20:02:02.992Z,42.05
2022-11-29T20:04:50.398Z,45.15
2022-11-29T20:07:37.345Z,40.45
2022-11-29T20:10:24.746Z,41.55
2022-11-29T20:13:11.641Z,46.60
2022-11-29T20:16:06.853Z,46.63
2022-11-29T20:18:56.716Z,40.67
2022-11-29T20:21:47.647Z,44.42
2022-11-29T20:24:40.060Z,44.40
2022-11-29T20:27:30.903Z,51.47
2022-11-29T20:30:17.963Z,50.83
2022-11-29T20:33:05.102Z,41.88
2022-11-29T20:36:05.415Z,44.08
2022-11-29T20:39:11.605Z,46.55
2022-11-29T20:42:23.645Z,40.85
2022-11-29T20:45:12.647Z,42.83
2022-11-29T20:48:22.396Z,45.05
2022-11-29T20:51:10.854Z,44.33
2022-11-29T20:53:58.905Z,44.05
2022-11-29T20:56:45.806Z,55.15
2022-11-29T20:59:32.718Z,47.40
2022-11-29T21:02:20.657Z,44.03
2022-11-29T21:05:08.070Z,44.40
2022-11-29T21:07:55.013Z,53.80
2022-11-29T21:10:42.207Z,52.75
2022-11-29T21:13:29.488Z,47.17
2022-11-29T21:16:16.906Z,48.47
2022-11-29T21:19:04.354Z,45.55
2022-11-29T21:22:08.340Z,53.55
2022-11-29T21:25:36.584Z,48.75
2022-11-29T21:28:30.306Z,45.90
2022-11-29T21:31:18.875Z,48.03
2022-11-29T21:34:05.821Z,47.25
2022-11-29T21:36:58.226Z,48.28
2022-11-29T21:39:45.397Z,54.33
2022-11-29T21:42:32.309Z,45.78
2022-11-29T21:45:19.460Z,44.78
2022-11-29T21:48:29.060Z,49.13
2022-11-29T21:51:16.003Z,46.67
2022-11-29T21:54:03.113Z,46.88
2022-11-29T21:56:50.210Z,45.00
2022-11-29T21:59:37.210Z,45.85
2022-11-29T22:02:24.220Z,51.53
2022-11-29T22:05:11.139Z,44.65
2022-11-29T22:07:58.107Z,47.35
2022-11-29T22:10:45.064Z,48.95
2022-11-29T22:13:32.082Z,50.85
2022-11-29T22:16:18.990Z,48.05
2022-11-29T22:19:05.919Z,49.13
2022-11-29T22:22:00.370Z,49.97
2022-11-29T22:24:47.772Z,50.40
2022-11-29T22:27:34.879Z,49.10
2022-11-29T22:30:21.828Z,56.30
2022-11-29T22:33:13.150Z,55.72
2022-11-29T22:36:18.579Z,54.40
2022-11-29T22:39:06.752Z,55.25
2022-11-29T22:41:54.933Z,57.58
2022-11-29T22:44:42.221Z,56.47
2022-11-29T22:47:29.098Z,55.75
2022-11-29T22:50:16.138Z,58.85
2022-11-29T22:53:02.991Z,58.60
2022-11-29T22:55:49.909Z,54.75
2022-11-29T22:58:37.433Z,55.83
2022-11-29T23:01:29.178Z,57.50
2022-11-29T23:04:16.106Z,58.17
2022-11-29T23:07:03.028Z,55.95
2022-11-29T23:09:49.915Z,55.97
2022-11-29T23:12:36.848Z,58.78
2022-11-29T23:15:23.848Z,61.42
2022-11-29T23:18:11.043Z,54.00
2022-11-29T23:21:25.160Z,54.72
2022-11-29T23:24:12.830Z,54.55
2022-11-29T23:26:59.750Z,57.20
2022-11-29T23:29:46.878Z,56.42
2022-11-29T23:32:33.806Z,54.00
2022-11-29T23:35:20.862Z,53.42
2022-11-29T23:38:07.931Z,69.80
2022-11-29T23:40:55.917Z,53.72
2022-11-29T23:43:43.087Z,58.42
2022-11-29T23:46:30.051Z,55.63
2022-11-29T23:49:16.993Z,57.92
2022-11-29T23:52:04.054Z,58.75
2022-11-29T23:54:50.957Z,57.25
2022-11-29T23:57:37.949Z,55.20
